Angler Guide Weather for Baker Lake -
Baker Lake, Nunavut Current Weather Conditions
Enter your "Place, State", US Zip Code or ICAO:  
Forecast Information Radar Information
Baker Lake, Nunavut, Canada  Lat: 64.30N, Lon: 96.08W
ICAO Used: CYRT
Current Conditions
Updated:
Sun & Moon Information:
Temp: N/A
Humidity: N/A
Wind Speed: N/A
Barometer: N/A
Dewpoint: N/A
Heat Index: N/A
Wind Chill: N/A
Civil Twilight: 8:53 AM CST
Moonrise: 5:00 AM CST Moon Phase:
Waning Crescent Moon
Waning Crescent Moon
Moonset: 2:05 PM CST
Sunrise: 10:12 AM CST
Sunset: 2:23 PM CST
Civil Twilight: 3:42 PM CST
Forecast for Baker Lake, NU:
(Forecast based on TAF for )
0504 PM CST MON NOV 06 2006
  
AFTERNOONEVENINGOVERNIGHT
WINDYWINDYWINDY
WindyWindyWindy
TAF based forecast:
Dated: 0504 PM CST MON NOV 06 2006
Afternoon...Partly cloudy. Windy with winds from the north at 17 mphand gusts up to 29 mph.
Evening...Partly cloudy. Windy with winds from the north at 17 mphand gusts up to 29 mph.
Overnight...Partly cloudy. Windy with winds from the north at 17 mphand gusts up to 29 mph.
Original Encoded TAF:
Dated: 0504 PM CST MON NOV 06 2006
2006/11/06 23:04
CYRT 062304Z 062306 01015G25KT P6SM FEW015=




Powered by Angler Guide.com
Copyright 2007, all rights reserved.